Time;durP1;ratioP1;P1;durP2;ratioP2;P2;SDS_P1;SDS_P2;PMS_P1;PMS_P2;Temp;Humidity;BMP_temperature;BMP_pressure;BME280_temperature;BME280_humidity;BME280_pressure;Samples;Min_cycle;Max_cycle;Signal;HPM_P1;HPM_P2
2023/07/19 00:01:46;;;;;;;1.83;0.10;;;;;;;15.95;57.26;100574.06;5012022;28;20053;-81
2023/07/19 00:04:13;;;;;;;1.83;0.20;;;;;;;16.01;57.14;100587.88;5012008;28;20709;-80
2023/07/19 00:06:40;;;;;;;4.47;0.30;;;;;;;15.95;57.01;100576.69;5012446;28;20052;-80
2023/07/19 00:09:08;;;;;;;3.30;0.10;;;;;;;15.93;57.05;100575.88;5011991;28;20049;-81
2023/07/19 00:11:35;;;;;;;1.38;0.25;;;;;;;15.92;56.91;100574.19;5011943;28;20056;-81
2023/07/19 00:14:05;;;;;;;1.98;0.10;;;;;;;15.92;57.09;100575.97;5012214;28;20052;-81
2023/07/19 00:16:32;;;;;;;1.73;0.10;;;;;;;15.90;57.28;100575.16;5012226;28;20057;-81
2023/07/19 00:18:59;;;;;;;2.65;0.17;;;;;;;15.87;57.16;100565.63;5011960;28;20050;-81
2023/07/19 00:21:26;;;;;;;1.70;0.20;;;;;;;15.84;57.03;100568.41;5011915;28;20055;-81
2023/07/19 00:23:53;;;;;;;0.88;0.20;;;;;;;15.84;57.36;100570.19;5012141;28;20065;-81
2023/07/19 00:26:22;;;;;;;1.90;0.10;;;;;;;15.80;57.18;100560.72;5011981;28;20046;-81
2023/07/19 00:28:48;;;;;;;1.27;0.10;;;;;;;15.76;57.48;100552.06;5011904;28;20113;-80
2023/07/19 00:31:15;;;;;;;4.10;0.10;;;;;;;15.79;57.25;100565.09;5011741;28;20053;-80
2023/07/19 00:33:42;;;;;;;1.27;0.10;;;;;;;15.75;57.65;100560.91;5000064;28;20056;-80
2023/07/19 00:36:09;;;;;;;2.22;0.10;;;;;;;15.74;57.51;100567.09;5011755;28;20045;-80
2023/07/19 00:38:36;;;;;;;0.90;0.10;;;;;;;15.71;57.66;100562.81;5011630;28;20601;-81
2023/07/19 00:41:03;;;;;;;2.25;0.20;;;;;;;15.71;57.50;100560.19;5011390;28;20049;-81
2023/07/19 00:43:31;;;;;;;3.58;0.10;;;;;;;15.69;57.62;100556.75;5011481;28;20073;-80
2023/07/19 00:45:59;;;;;;;3.00;0.17;;;;;;;15.68;57.83;100556.81;5011699;28;20046;-80
2023/07/19 00:48:26;;;;;;;3.03;0.10;;;;;;;15.65;57.70;100555.16;5011448;28;20491;-81
2023/07/19 00:50:55;;;;;;;5.82;0.17;;;;;;;15.63;57.78;100550.88;5011895;28;20056;-80
2023/07/19 00:53:25;;;;;;;3.25;0.10;;;;;;;15.59;57.94;100544.00;5014768;28;20046;-80
2023/07/19 00:55:53;;;;;;;3.50;0.20;;;;;;;15.58;57.77;100548.44;5015365;28;20068;-80
2023/07/19 00:58:22;;;;;;;1.13;0.10;;;;;;;15.55;57.92;100552.97;5015711;28;20129;-81
2023/07/19 01:00:52;;;;;;;1.58;0.85;;;;;;;15.52;58.09;100554.81;5015026;28;20138;-81
2023/07/19 01:03:19;;;;;;;3.38;0.10;;;;;;;15.47;58.10;100546.25;5015174;28;20053;-81
2023/07/19 01:05:48;;;;;;;4.43;0.20;;;;;;;15.47;57.82;100545.38;5015330;28;20046;-81
2023/07/19 01:08:17;;;;;;;1.80;0.10;;;;;;;15.45;58.33;100553.38;5015230;28;20061;-80
2023/07/19 01:10:44;;;;;;;1.48;0.10;;;;;;;15.43;58.25;100555.19;5015307;28;20128;-80
2023/07/19 01:13:12;;;;;;;2.58;0.10;;;;;;;15.40;58.39;100554.47;5015227;28;20058;-81
2023/07/19 01:15:41;;;;;;;3.15;0.20;;;;;;;15.32;58.37;100536.38;5015613;28;20038;-81
2023/07/19 01:18:09;;;;;;;8.40;0.95;;;;;;;15.36;58.42;100545.84;5014288;28;20049;-81
2023/07/19 01:20:37;;;;;;;2.88;0.30;;;;;;;15.33;58.38;100542.50;5013362;28;20498;-80
2023/07/19 01:23:05;;;;;;;1.55;0.10;;;;;;;15.31;58.47;100545.16;5014786;28;20557;-81
2023/07/19 01:25:32;;;;;;;2.85;0.22;;;;;;;15.23;58.66;100526.25;5015171;28;20042;-81
2023/07/19 01:28:00;;;;;;;3.08;0.20;;;;;;;15.19;58.64;100527.28;5001801;28;20038;-81
2023/07/19 01:30:27;;;;;;;4.22;0.20;;;;;;;14.98;58.78;100500.94;5009724;28;20057;-81
2023/07/19 01:32:54;;;;;;;0.30;0.00;;;;;;;15.19;59.04;100543.91;5014149;28;20509;-82
2023/07/19 01:35:21;;;;;;;1.70;0.15;;;;;;;15.15;59.14;100534.44;5014707;28;20129;-81
2023/07/19 01:37:48;;;;;;;3.35;0.17;;;;;;;15.14;59.04;100534.50;5014852;28;20042;-81
2023/07/19 01:40:16;;;;;;;4.20;0.17;;;;;;;15.11;59.25;100543.34;5014738;28;20052;-81
2023/07/19 01:42:43;;;;;;;3.25;0.10;;;;;;;15.10;59.17;100540.81;5015026;28;20398;-81
2023/07/19 01:45:11;;;;;;;4.72;0.70;;;;;;;15.02;59.33;100528.81;5014462;28;20056;-81
2023/07/19 01:47:37;;;;;;;1.75;0.20;;;;;;;15.02;59.17;100528.81;5014484;28;20050;-81
2023/07/19 01:50:05;;;;;;;1.63;0.10;;;;;;;15.02;59.29;100533.22;5014754;28;20053;-80
2023/07/19 01:52:32;;;;;;;4.80;0.25;;;;;;;14.99;59.38;100528.94;5014365;28;20541;-81
2023/07/19 01:54:59;;;;;;;2.22;0.10;;;;;;;14.90;59.49;100523.22;5009743;28;20042;-81
2023/07/19 01:57:27;;;;;;;4.32;0.20;;;;;;;14.92;59.54;100535.38;5014779;28;20050;-81
2023/07/19 01:59:54;;;;;;;2.65;0.20;;;;;;;14.90;59.39;100534.56;5014627;28;20552;-80
2023/07/19 02:02:21;;;;;;;5.40;1.13;;;;;;;14.88;59.35;100536.41;5014142;28;20057;-81
2023/07/19 02:04:48;;;;;;;1.65;0.25;;;;;;;14.85;59.47;100531.28;5013419;28;20046;-81
2023/07/19 02:07:15;;;;;;;1.25;0.10;;;;;;;14.84;59.75;100529.56;5013985;28;20451;-81
2023/07/19 02:09:42;;;;;;;3.30;0.20;;;;;;;14.81;59.77;100529.69;5014316;28;20054;-81
2023/07/19 02:12:10;;;;;;;3.03;0.28;;;;;;;14.76;59.75;100521.97;5014372;28;20104;-81
2023/07/19 02:14:38;;;;;;;5.30;0.20;;;;;;;14.77;59.83;100522.81;5014216;28;20057;-81
2023/07/19 02:17:06;;;;;;;1.05;0.13;;;;;;;14.73;59.83;100516.84;5014105;28;20688;-74
2023/07/19 02:19:33;;;;;;;4.15;0.20;;;;;;;14.71;59.88;100518.66;5009474;28;20046;-74
2023/07/19 02:22:00;;;;;;;3.50;0.52;;;;;;;14.62;60.28;100511.16;5009643;28;20441;-74
2023/07/19 02:24:27;;;;;;;1.73;0.10;;;;;;;14.66;60.14;100520.66;5009666;28;20053;-74
2023/07/19 02:26:53;;;;;;;2.17;0.10;;;;;;;14.65;60.35;100518.06;5009759;28;20068;-74
2023/07/19 02:29:20;;;;;;;2.35;0.13;;;;;;;14.62;60.21;100514.63;5009897;28;20078;-74
2023/07/19 02:31:49;;;;;;;2.40;0.30;;;;;;;14.61;60.15;100523.44;5009671;28;20060;-74
2023/07/19 02:34:18;;;;;;;3.55;0.20;;;;;;;14.59;60.25;100525.25;5009339;28;20056;-75
2023/07/19 02:36:45;;;;;;;3.05;0.13;;;;;;;14.57;60.31;100524.50;5009614;28;20049;-74
2023/07/19 02:39:12;;;;;;;4.57;0.10;;;;;;;14.54;60.62;100522.00;5009126;28;20042;-74
2023/07/19 02:41:39;;;;;;;2.55;0.10;;;;;;;14.54;60.53;100521.09;5009165;28;20410;-74
2023/07/19 02:44:06;;;;;;;7.80;0.90;;;;;;;14.49;60.52;100518.63;5009091;28;20046;-74
2023/07/19 02:46:33;;;;;;;7.05;0.73;;;;;;;14.49;60.52;100525.69;5009182;28;20053;-75
2023/07/19 02:49:01;;;;;;;3.05;0.20;;;;;;;14.46;60.74;100512.63;5009578;28;20049;-72
2023/07/19 02:51:28;;;;;;;9.25;0.35;;;;;;;14.45;60.82;100519.66;5008824;28;20042;-76
2023/07/19 02:53:55;;;;;;;3.55;0.30;;;;;;;14.44;61.05;100525.84;5009800;28;20057;-76
2023/07/19 02:56:22;;;;;;;2.08;0.30;;;;;;;14.42;61.15;100519.78;5009820;28;20045;-77
2023/07/19 02:58:49;;;;;;;1.45;0.17;;;;;;;14.42;61.36;100524.19;5009084;28;20130;-76
2023/07/19 03:01:16;;;;;;;3.03;0.10;;;;;;;14.38;61.36;100521.69;5008890;28;20052;-76
2023/07/19 03:03:43;;;;;;;6.90;0.60;;;;;;;14.38;61.42;100532.19;5009508;28;20053;-76
2023/07/19 03:06:11;;;;;;;2.33;0.40;;;;;;;14.37;61.50;100530.47;5009654;28;20053;-75
2023/07/19 03:08:38;;;;;;;3.92;0.28;;;;;;;14.37;61.60;100526.97;5009162;28;20081;-76
2023/07/19 03:11:06;;;;;;;3.70;0.30;;;;;;;14.33;61.69;100520.13;5008791;28;20137;-76
2023/07/19 03:13:33;;;;;;;3.28;0.45;;;;;;;14.35;61.77;100521.78;5009407;28;20464;-75
2023/07/19 03:16:00;;;;;;;4.15;0.20;;;;;;;14.34;61.86;100520.09;5009648;28;20050;-77
2023/07/19 03:18:27;;;;;;;2.72;0.20;;;;;;;14.34;61.84;100513.97;5009546;28;20061;-76
2023/07/19 03:20:58;;;;;;;1.10;0.17;;;;;;;14.31;62.13;100511.44;5008112;28;20058;-76
2023/07/19 03:23:26;;;;;;;5.00;0.25;;;;;;;14.33;62.26;100514.88;5008343;28;20050;-75
2023/07/19 03:25:57;;;;;;;3.88;0.20;;;;;;;14.33;62.23;100517.50;5007650;28;20065;-77
2023/07/19 03:28:24;;;;;;;3.50;0.20;;;;;;;14.31;62.33;100512.28;5009528;28;20049;-76
2023/07/19 03:30:54;;;;;;;5.65;0.30;;;;;;;14.32;62.52;100515.81;5008839;28;20671;-76
2023/07/19 03:33:21;;;;;;;7.60;0.32;;;;;;;14.31;62.63;100517.56;5008663;28;20141;-76
2023/07/19 03:35:48;;;;;;;3.92;0.20;;;;;;;14.33;62.66;100513.09;5008878;28;20042;-76
2023/07/19 03:38:15;;;;;;;7.63;0.90;;;;;;;14.32;62.76;100518.44;5008716;28;20050;-76
2023/07/19 03:40:44;;;;;;;4.05;0.40;;;;;;;14.34;62.93;100519.22;5008669;28;20913;-77
2023/07/19 03:43:11;;;;;;;4.78;0.40;;;;;;;14.33;63.27;100513.09;5008151;28;20053;-76
2023/07/19 03:45:38;;;;;;;4.00;0.30;;;;;;;14.36;63.16;100522.66;5006401;28;20119;-76
2023/07/19 03:48:05;;;;;;;3.83;0.30;;;;;;;14.37;63.38;100513.84;5008794;28;20066;-75
2023/07/19 03:50:32;;;;;;;5.00;0.52;;;;;;;14.38;63.48;100512.94;5006949;28;20046;-75
2023/07/19 03:52:59;;;;;;;9.50;0.40;;;;;;;14.40;63.36;100505.88;5008809;28;20057;-75
2023/07/19 03:55:25;;;;;;;5.75;1.00;;;;;;;14.38;63.49;100494.53;5008006;28;20050;-76
2023/07/19 03:57:54;;;;;;;4.20;0.25;;;;;;;14.44;63.63;100489.06;5008548;28;20049;-76
2023/07/19 04:00:21;;;;;;;9.48;0.57;;;;;;;14.47;63.55;100494.19;5007170;28;20051;-76
2023/07/19 04:02:48;;;;;;;4.88;0.20;;;;;;;14.50;63.56;100494.06;5006870;28;20115;-76
2023/07/19 04:05:15;;;;;;;7.38;0.30;;;;;;;14.51;63.40;100495.75;5007845;28;20069;-77
2023/07/19 04:07:42;;;;;;;3.80;0.40;;;;;;;14.57;63.49;100494.69;5008436;28;20542;-76
2023/07/19 04:10:10;;;;;;;6.25;1.20;;;;;;;14.60;63.21;100484.09;5007736;28;20069;-75
2023/07/19 04:12:37;;;;;;;3.95;0.40;;;;;;;14.63;63.44;100486.59;5008546;28;20049;-76
2023/07/19 04:15:06;;;;;;;5.03;0.30;;;;;;;14.68;63.60;100486.41;5008162;28;20411;-76
2023/07/19 04:17:33;;;;;;;6.80;0.20;;;;;;;14.70;63.51;100488.03;5008325;28;20071;-76
2023/07/19 04:20:00;;;;;;;27.50;1.95;;;;;;;14.74;63.46;100489.66;5007177;28;20053;-76
2023/07/19 04:22:27;;;;;;;2.38;0.30;;;;;;;14.77;63.54;100475.50;5008367;28;20049;-76
2023/07/19 04:24:54;;;;;;;6.60;0.20;;;;;;;14.83;63.47;100483.16;5008297;28;20050;-76
2023/07/19 04:27:21;;;;;;;2.85;0.40;;;;;;;14.87;63.65;100482.09;5007747;28;20057;-76
2023/07/19 04:29:48;;;;;;;3.88;0.40;;;;;;;14.92;63.78;100482.78;5008491;28;20056;-76
2023/07/19 04:32:17;;;;;;;6.05;0.95;;;;;;;14.98;63.54;100479.88;5008138;28;20049;-76
2023/07/19 04:34:44;;;;;;;4.32;0.30;;;;;;;15.05;63.83;100488.38;5008139;28;20053;-76
2023/07/19 04:37:11;;;;;;;8.05;0.30;;;;;;;15.11;63.79;100482.84;5007726;28;20046;-76
2023/07/19 04:39:37;;;;;;;7.63;0.55;;;;;;;15.18;63.67;100481.69;5008026;28;20465;-76
2023/07/19 04:42:05;;;;;;;6.85;0.68;;;;;;;15.25;63.57;100483.16;5007787;28;20041;-76
2023/07/19 04:44:32;;;;;;;10.30;0.52;;;;;;;15.32;63.46;100483.75;5007987;28;20050;-76
2023/07/19 04:46:59;;;;;;;6.07;0.40;;;;;;;15.31;63.38;100466.22;5007829;28;20438;-77
2023/07/19 04:49:27;;;;;;;5.22;0.30;;;;;;;15.46;63.39;100476.09;5007960;28;20545;-76
2023/07/19 04:51:54;;;;;;;5.55;0.40;;;;;;;15.60;63.28;100482.56;5007899;28;20054;-76
2023/07/19 04:54:21;;;;;;;13.52;1.73;;;;;;;15.69;63.30;100482.16;5008140;28;20060;-76
2023/07/19 04:56:48;;;;;;;3.78;0.30;;;;;;;15.80;62.85;100486.97;5007814;28;20085;-76
2023/07/19 04:59:16;;;;;;;7.70;0.30;;;;;;;15.90;62.75;100486.47;5007572;28;20054;-75
2023/07/19 05:01:43;;;;;;;7.28;0.50;;;;;;;16.01;62.49;100477.22;5007114;28;20096;-80
2023/07/19 05:04:10;;;;;;;5.97;0.35;;;;;;;16.10;62.12;100477.66;5008046;28;20049;-76
2023/07/19 05:06:38;;;;;;;5.18;0.45;;;;;;;16.21;62.22;100473.69;5007855;28;20045;-75
2023/07/19 05:09:05;;;;;;;2.08;0.63;;;;;;;16.18;62.16;100448.31;5007750;28;20046;-77
2023/07/19 05:11:32;;;;;;;7.40;0.40;;;;;;;16.39;61.88;100463.13;5007839;28;20053;-77
2023/07/19 05:13:59;;;;;;;3.22;0.40;;;;;;;16.49;61.58;100468.81;5007877;28;20058;-76
2023/07/19 05:16:26;;;;;;;2.17;0.30;;;;;;;16.60;61.52;100463.03;5007736;28;20141;-76
2023/07/19 05:18:53;;;;;;;3.25;0.52;;;;;;;16.68;61.52;100463.50;5008082;28;20088;-76
2023/07/19 05:21:20;;;;;;;6.05;0.40;;;;;;;16.75;61.14;100457.00;5007566;28;20053;-76
2023/07/19 05:23:49;;;;;;;3.83;0.30;;;;;;;16.86;61.01;100462.63;5007697;28;20060;-76
2023/07/19 05:26:16;;;;;;;6.43;0.30;;;;;;;16.96;60.72;100456.88;5007589;28;20049;-77
2023/07/19 05:28:43;;;;;;;3.42;0.30;;;;;;;17.02;60.47;100457.44;5006386;28;20525;-76
2023/07/19 05:31:10;;;;;;;5.20;0.50;;;;;;;17.09;60.31;100456.19;5007648;28;20061;-76
2023/07/19 05:33:37;;;;;;;2.45;0.30;;;;;;;17.16;60.38;100451.47;5007600;28;20050;-76
2023/07/19 05:36:04;;;;;;;3.30;0.32;;;;;;;17.20;60.19;100452.16;5007174;28;20060;-76
2023/07/19 05:38:32;;;;;;;5.03;0.35;;;;;;;17.23;60.17;100442.28;5008122;28;20058;-77
2023/07/19 05:41:02;;;;;;;6.50;0.52;;;;;;;17.27;60.08;100443.84;5010395;28;20061;-77
2023/07/19 05:43:29;;;;;;;4.93;0.40;;;;;;;17.40;59.86;100453.78;5011100;28;20050;-76
2023/07/19 05:46:04;;;;;;;9.85;0.40;;;;;;;17.48;59.68;100443.69;5010825;28;20045;-76
2023/07/19 05:48:31;;;;;;;7.53;1.33;;;;;;;17.54;59.64;100453.91;5010702;28;20046;-76
2023/07/19 05:50:58;;;;;;;3.88;0.30;;;;;;;17.60;59.60;100453.59;5010425;28;20052;-77
2023/07/19 05:53:25;;;;;;;8.82;0.50;;;;;;;17.66;59.38;100455.91;5009177;28;20045;-75
2023/07/19 05:55:52;;;;;;;3.15;0.30;;;;;;;17.71;59.84;100456.50;5010347;28;20104;-75
2023/07/19 05:58:21;;;;;;;6.13;0.30;;;;;;;17.76;59.45;100445.72;5010685;28;20076;-75
2023/07/19 06:00:48;;;;;;;5.63;0.30;;;;;;;17.81;59.21;100445.47;5010178;28;20053;-75
2023/07/19 06:03:16;;;;;;;1.48;0.22;;;;;;;17.84;59.12;100438.22;5010415;28;20136;-76
2023/07/19 06:05:44;;;;;;;3.40;0.30;;;;;;;17.89;59.06;100441.47;5010195;28;20129;-76
2023/07/19 06:08:11;;;;;;;6.97;0.30;;;;;;;17.91;58.88;100447.53;5010092;28;20112;-77
2023/07/19 06:10:38;;;;;;;4.70;0.65;;;;;;;17.92;58.39;100437.81;5010252;28;20706;-75
2023/07/19 06:13:05;;;;;;;10.60;0.40;;;;;;;17.99;58.54;100439.22;5007732;28;20046;-75
2023/07/19 06:15:34;;;;;;;7.30;0.80;;;;;;;18.03;58.57;100440.72;5010195;28;20626;-76
2023/07/19 06:18:02;;;;;;;9.07;0.30;;;;;;;18.06;58.59;100440.56;5009855;28;20052;-75
2023/07/19 06:20:29;;;;;;;5.90;0.30;;;;;;;18.08;58.71;100437.84;5010108;28;20135;-75
2023/07/19 06:22:56;;;;;;;2.50;0.28;;;;;;;18.07;58.61;100431.72;5009329;28;20057;-76
2023/07/19 06:25:22;;;;;;;2.72;0.22;;;;;;;18.08;58.54;100422.84;5009934;28;20133;-76
2023/07/19 06:27:49;;;;;;;5.47;0.30;;;;;;;18.10;58.43;100430.66;5009814;28;20058;-75
2023/07/19 06:30:16;;;;;;;5.90;0.40;;;;;;;18.12;58.66;100434.94;5010027;28;20050;-77
2023/07/19 06:32:44;;;;;;;2.88;0.25;;;;;;;18.12;58.26;100429.66;5009734;28;20514;-76
2023/07/19 06:35:11;;;;;;;5.00;0.65;;;;;;;18.14;58.44;100427.78;5009950;28;20058;-76
2023/07/19 06:37:38;;;;;;;5.28;0.45;;;;;;;18.17;58.32;100426.75;5009673;28;20045;-76
2023/07/19 06:40:06;;;;;;;4.40;0.40;;;;;;;18.17;58.29;100417.03;5010040;28;20404;-77
2023/07/19 06:42:33;;;;;;;4.45;0.40;;;;;;;18.20;58.18;100416.00;5009601;28;20741;-75
2023/07/19 06:45:00;;;;;;;5.78;0.60;;;;;;;18.23;58.01;100417.63;5009690;28;20046;-77
2023/07/19 06:47:28;;;;;;;4.57;0.35;;;;;;;18.25;58.05;100416.63;5009576;28;20045;-76
2023/07/19 06:49:57;;;;;;;5.75;0.73;;;;;;;18.27;58.09;100411.22;5008767;28;20063;-76
2023/07/19 06:52:24;;;;;;;7.53;0.73;;;;;;;18.28;58.15;100412.94;5008080;28;20046;-76
2023/07/19 06:54:51;;;;;;;5.47;0.30;;;;;;;18.32;57.99;100414.47;5007854;28;20065;-76
2023/07/19 06:57:20;;;;;;;4.93;0.80;;;;;;;18.32;58.12;100411.81;5009481;28;20505;-76
2023/07/19 06:59:49;;;;;;;3.58;0.50;;;;;;;18.34;58.12;100408.16;5009166;28;20137;-76
2023/07/19 07:02:16;;;;;;;3.85;0.80;;;;;;;18.37;57.93;100410.63;5008890;28;20064;-77
2023/07/19 07:04:43;;;;;;;6.30;0.20;;;;;;;18.40;57.71;100402.50;5009517;28;20060;-76
2023/07/19 07:07:11;;;;;;;7.30;0.52;;;;;;;18.42;57.82;100405.09;5009304;28;20042;-76
2023/07/19 07:09:38;;;;;;;4.63;0.30;;;;;;;18.48;57.84;100396.81;5009404;28;20066;-76
2023/07/19 07:12:06;;;;;;;5.68;0.73;;;;;;;18.55;58.03;100398.13;5009080;28;20052;-76
2023/07/19 07:14:33;;;;;;;8.63;0.50;;;;;;;18.58;57.70;100397.09;5008825;28;20421;-76
2023/07/19 07:17:00;;;;;;;4.13;0.30;;;;;;;18.64;57.90;100392.34;5008761;28;20038;-77
2023/07/19 07:19:27;;;;;;;7.20;0.47;;;;;;;18.71;57.42;100390.16;5008930;28;20121;-76
2023/07/19 07:21:54;;;;;;;5.57;0.50;;;;;;;18.80;57.58;100399.41;5008832;28;20885;-75
2023/07/19 07:24:22;;;;;;;4.38;0.30;;;;;;;18.89;56.93;100388.25;5008877;28;20068;-77
2023/07/19 07:26:49;;;;;;;2.20;0.20;;;;;;;18.98;56.72;100395.69;5008181;28;20045;-77
2023/07/19 07:29:16;;;;;;;4.63;0.80;;;;;;;19.05;56.74;100391.72;5008524;28;20422;-76
2023/07/19 07:31:43;;;;;;;6.32;0.20;;;;;;;19.14;56.31;100384.16;5008112;28;20056;-76
2023/07/19 07:34:11;;;;;;;3.83;0.30;;;;;;;19.22;56.55;100380.09;5007481;28;20045;-77
2023/07/19 07:36:37;;;;;;;6.72;0.32;;;;;;;19.33;55.94;100382.09;5007130;28;20053;-76
2023/07/19 07:39:05;;;;;;;4.18;0.30;;;;;;;19.45;56.04;100381.34;5008540;28;20516;-76
2023/07/19 07:41:34;;;;;;;4.28;0.20;;;;;;;19.55;55.68;100382.50;5006617;28;20580;-77
2023/07/19 07:44:01;;;;;;;4.15;0.30;;;;;;;19.65;56.12;100379.25;5004076;28;20057;-75
2023/07/19 07:46:29;;;;;;;2.05;0.40;;;;;;;19.76;55.71;100374.16;5008492;28;20052;-77
2023/07/19 07:48:59;;;;;;;5.47;0.30;;;;;;;19.87;54.85;100384.94;5008615;28;20041;-76
2023/07/19 07:51:27;;;;;;;6.18;0.20;;;;;;;19.97;54.44;100383.38;5006464;28;20064;-76
2023/07/19 07:53:54;;;;;;;5.47;0.30;;;;;;;20.06;54.50;100378.44;5006744;28;20081;-76
2023/07/19 07:56:22;;;;;;;5.82;0.43;;;;;;;20.12;54.55;100375.41;5008621;28;20084;-76
2023/07/19 07:58:50;;;;;;;5.18;0.38;;;;;;;20.21;54.58;100372.19;5007496;28;20049;-76
2023/07/19 08:01:17;;;;;;;2.50;0.28;;;;;;;20.27;54.62;100370.94;5005092;28;20069;-76
2023/07/19 08:03:44;;;;;;;4.00;0.43;;;;;;;20.33;54.04;100366.06;5007978;28;20509;-77
2023/07/19 08:06:11;;;;;;;3.92;0.63;;;;;;;20.40;54.01;100367.34;5008075;28;20053;-77
2023/07/19 08:08:38;;;;;;;4.57;0.32;;;;;;;20.50;54.12;100364.94;5007819;28;20134;-75
2023/07/19 08:11:05;;;;;;;3.92;0.40;;;;;;;20.59;53.20;100369.66;5008388;28;20700;-77
2023/07/19 08:13:33;;;;;;;2.33;0.47;;;;;;;20.63;52.76;100359.69;5007903;28;20068;-77
2023/07/19 08:16:01;;;;;;;2.13;0.22;;;;;;;20.76;52.72;100365.88;5008178;28;20057;-76
2023/07/19 08:18:29;;;;;;;2.97;0.20;;;;;;;20.85;52.43;100367.91;5007857;28;20042;-76
2023/07/19 08:20:56;;;;;;;2.50;0.20;;;;;;;20.91;51.99;100364.00;5006247;28;20045;-76
2023/07/19 08:23:24;;;;;;;4.05;0.30;;;;;;;20.83;51.64;100337.97;5004756;28;20042;-76
2023/07/19 08:25:56;;;;;;;1.00;0.10;;;;;;;21.05;51.54;100350.63;5007506;28;20053;-76
2023/07/19 08:28:24;;;;;;;6.93;0.30;;;;;;;21.05;51.66;100341.81;5007633;28;20049;-76
2023/07/19 08:30:51;;;;;;;5.05;0.25;;;;;;;21.20;51.22;100359.31;5007276;28;20522;-77
2023/07/19 08:33:19;;;;;;;1.50;0.20;;;;;;;21.26;50.74;100348.28;5007293;28;20045;-75
2023/07/19 08:35:46;;;;;;;4.95;0.35;;;;;;;21.32;50.48;100339.88;5007974;28;20112;-76
2023/07/19 08:38:13;;;;;;;3.15;0.20;;;;;;;21.37;50.49;100344.88;5007615;28;20137;-77
2023/07/19 08:40:41;;;;;;;3.67;0.28;;;;;;;21.43;50.34;100348.94;5007665;28;20486;-77
2023/07/19 08:43:08;;;;;;;2.25;0.20;;;;;;;21.45;50.26;100336.38;5007722;28;20585;-75
2023/07/19 08:45:37;;;;;;;2.35;0.25;;;;;;;21.52;50.08;100342.97;5007911;28;20054;-76
2023/07/19 08:48:05;;;;;;;2.88;0.20;;;;;;;21.32;49.89;100313.31;5006322;28;20073;-76
2023/07/19 08:50:35;;;;;;;2.70;0.32;;;;;;;21.49;49.31;100346.69;5006990;28;20058;-77
2023/07/19 08:53:02;;;;;;;5.38;1.55;;;;;;;21.55;49.38;100359.56;5007317;28;20699;-76
2023/07/19 08:55:31;;;;;;;4.60;0.13;;;;;;;21.55;49.14;100348.06;5007370;28;20056;-76
2023/07/19 08:57:58;;;;;;;4.95;0.20;;;;;;;21.51;49.19;100346.56;5007390;28;20054;-76
2023/07/19 09:00:27;;;;;;;3.70;0.40;;;;;;;21.53;49.23;100347.31;5007557;28;20061;-76
2023/07/19 09:02:55;;;;;;;3.67;0.55;;;;;;;21.51;49.33;100349.22;5007196;28;20054;-76
2023/07/19 09:05:21;;;;;;;3.97;0.30;;;;;;;21.49;49.13;100349.34;5007537;28;20077;-76
2023/07/19 09:07:50;;;;;;;5.38;0.20;;;;;;;21.48;49.73;100347.63;5007417;28;20057;-75
2023/07/19 09:10:18;;;;;;;3.45;0.20;;;;;;;21.48;49.88;100352.13;5007684;28;20069;-75
2023/07/19 09:12:45;;;;;;;4.82;0.32;;;;;;;21.41;50.09;100326.94;5007209;28;20056;-76
2023/07/19 09:15:13;;;;;;;1.48;0.20;;;;;;;21.49;50.82;100340.53;5009820;28;20056;-75
2023/07/19 09:17:41;;;;;;;5.32;0.25;;;;;;;21.50;50.88;100334.25;5011463;28;20669;-75
2023/07/19 09:20:09;;;;;;;4.00;0.30;;;;;;;21.55;50.68;100337.44;5010960;28;20078;-76
2023/07/19 09:22:37;;;;;;;3.67;0.30;;;;;;;21.58;50.67;100334.56;5011322;28;20993;-76
2023/07/19 09:25:09;;;;;;;4.25;0.20;;;;;;;21.62;50.52;100333.38;5010846;28;20108;-76
2023/07/19 09:27:36;;;;;;;3.05;0.20;;;;;;;21.65;49.96;100335.81;5011233;28;20046;-75
2023/07/19 09:30:04;;;;;;;3.55;0.52;;;;;;;21.66;49.85;100336.66;5011053;28;20050;-76
2023/07/19 09:32:31;;;;;;;2.78;0.20;;;;;;;21.68;49.76;100343.56;5011068;28;20108;-75
2023/07/19 09:35:01;;;;;;;2.70;0.28;;;;;;;21.69;49.43;100334.66;5010668;28;20053;-76
2023/07/19 09:37:28;;;;;;;4.05;0.30;;;;;;;21.65;49.00;100325.19;5011026;28;20057;-75
2023/07/19 09:39:56;;;;;;;6.90;0.30;;;;;;;21.70;49.02;100333.69;5010601;28;20050;-76
2023/07/19 09:42:25;;;;;;;1.52;0.30;;;;;;;21.68;48.82;100324.94;5010601;28;20499;-75
2023/07/19 09:44:54;;;;;;;4.50;0.43;;;;;;;21.68;49.28;100330.28;5007971;28;20050;-76
2023/07/19 09:47:23;;;;;;;1.10;0.20;;;;;;;21.66;49.28;100326.03;5008840;28;20052;-76
2023/07/19 09:49:50;;;;;;;0.68;0.20;;;;;;;21.65;49.36;100325.19;5008291;28;20171;-76
2023/07/19 09:52:19;;;;;;;5.20;0.35;;;;;;;21.60;49.29;100324.69;5008132;28;20155;-75
2023/07/19 09:54:46;;;;;;;2.88;0.17;;;;;;;21.60;49.42;100323.81;5010459;28;20060;-76
2023/07/19 09:57:13;;;;;;;3.67;0.20;;;;;;;21.58;49.28;100315.97;5010666;28;20046;-75
2023/07/19 09:59:45;;;;;;;6.75;0.63;;;;;;;21.55;48.99;100311.72;5010504;28;20126;-76
2023/07/19 10:02:13;;;;;;;4.68;0.20;;;;;;;21.55;49.11;100317.03;5009777;28;20053;-76
2023/07/19 10:04:42;;;;;;;1.67;0.35;;;;;;;21.51;49.14;100301.41;5009820;28;20498;-75
2023/07/19 10:07:11;;;;;;;1.75;0.30;;;;;;;21.51;49.45;100304.06;5010072;28;20108;-76
2023/07/19 10:09:39;;;;;;;2.03;0.20;;;;;;;21.51;49.40;100314.69;5010248;28;20053;-77
2023/07/19 10:12:24;;;;;;;2.03;0.20;;;;;;;21.51;49.00;100307.56;5009913;28;20808;-76
2023/07/19 10:15:01;;;;;;;3.30;0.30;;;;;;;21.49;49.12;100300.69;5007674;28;20058;-75
2023/07/19 10:17:29;;;;;;;2.90;0.22;;;;;;;21.46;49.13;100304.41;5008793;28;20491;-75
2023/07/19 10:20:15;;;;;;;4.68;0.30;;;;;;;21.49;49.00;100298.03;5009746;28;20081;-76
2023/07/19 10:22:50;;;;;;;1.70;0.28;;;;;;;21.45;49.76;100296.53;5009640;28;20050;-75
2023/07/19 10:25:22;;;;;;;5.65;1.38;;;;;;;21.45;49.76;100292.06;5006185;28;20050;-76
2023/07/19 10:28:01;;;;;;;0.90;0.20;;;;;;;21.46;48.83;100291.13;5009918;28;20108;-76
2023/07/19 10:30:55;;;;;;;2.38;0.20;;;;;;;21.46;49.37;100290.25;5008864;28;20104;-74
2023/07/19 10:33:24;;;;;;;1.92;0.20;;;;;;;21.44;49.66;100289.53;5008642;28;20482;-76
2023/07/19 10:35:52;;;;;;;3.25;0.20;;;;;;;21.45;50.01;100285.91;5009711;28;20046;-75
2023/07/19 10:38:21;;;;;;;2.67;0.20;;;;;;;21.44;49.46;100278.91;5009750;28;20129;-74
2023/07/19 10:40:53;;;;;;;1.20;0.10;;;;;;;21.43;49.50;100282.50;5009837;28;20092;-75
2023/07/19 10:43:20;;;;;;;1.05;0.20;;;;;;;21.42;49.67;100289.63;5009399;28;20046;-75
2023/07/19 10:45:48;;;;;;;5.82;0.30;;;;;;;21.37;49.50;100275.81;5009479;28;20045;-75
2023/07/19 10:48:15;;;;;;;1.75;0.20;;;;;;;21.39;50.02;100278.38;5009484;28;20049;-75
2023/07/19 10:50:44;;;;;;;4.13;0.20;;;;;;;21.43;50.25;100287.81;5007332;28;20046;-75
2023/07/19 10:53:11;;;;;;;2.00;0.22;;;;;;;21.42;50.19;100284.31;5008802;28;20045;-76
2023/07/19 10:55:38;;;;;;;2.58;0.20;;;;;;;21.43;50.49;100280.72;5008189;28;20054;-74
2023/07/19 10:58:06;;;;;;;2.30;0.20;;;;;;;21.40;50.50;100274.75;5009547;28;20434;-75
2023/07/19 11:00:37;;;;;;;2.28;0.30;;;;;;;21.43;50.47;100282.50;5008950;28;20046;-75
2023/07/19 11:03:08;;;;;;;2.70;0.28;;;;;;;21.43;50.21;100267.44;5008836;28;20058;-75
2023/07/19 11:05:41;;;;;;;3.40;0.30;;;;;;;21.45;50.54;100269.97;5009123;28;20422;-75
2023/07/19 11:08:08;;;;;;;1.60;0.20;;;;;;;21.48;50.28;100269.72;5007143;28;20096;-75
2023/07/19 11:10:35;;;;;;;9.73;0.40;;;;;;;21.50;49.69;100271.31;5009059;28;20061;-75
2023/07/19 11:13:03;;;;;;;1.83;0.20;;;;;;;21.53;49.29;100265.78;5009010;28;20056;-75
2023/07/19 11:15:30;;;;;;;3.05;0.10;;;;;;;21.57;49.48;100261.09;5008962;28;20058;-75
2023/07/19 11:17:58;;;;;;;8.95;0.40;;;;;;;21.59;49.54;100258.34;5008990;28;20050;-75
2023/07/19 11:20:31;;;;;;;2.10;0.10;;;;;;;21.55;49.23;100249.75;5008961;28;20050;-76
2023/07/19 11:23:07;;;;;;;1.85;0.20;;;;;;;21.65;49.28;100252.56;5008667;28;20050;-75
2023/07/19 11:25:35;;;;;;;2.03;0.22;;;;;;;21.68;48.97;100253.19;5008471;28;20052;-75
2023/07/19 11:28:02;;;;;;;2.80;0.20;;;;;;;21.69;48.86;100257.56;5008754;28;20053;-75